Delray Beach, FL (33448)

2:05 AM EDT on April 18, 2015 (GMT -0400)
SFWMD | | Change Station
CLOSE
Current Station
Personal Weather Station
Location: Delray Beach, FL
Elevation: 10 ft
Nearby Weather Stations

Elev 10 ft 26.50 °N, 80.22 °W | Updated 50 minutes ago

Partly Cloudy
Partly Cloudy
75 °F
Feels Like 74 °F
N
4
Wind Variable Wind from SSE
Gusts 5.0 mph

Today
High -- | Low -- °F
--% Chance of Precip.
Yesterday
High -- | Low -- °F
Precip. -- in
6:54 AM 7:46 PM
Waning Crescent, 0% visible
Pressure 29.99 in
Visibility 10.0 miles
Clouds Clear
Heat Index 74 °F
Dew Point 72 °F
Humidity 90%
Rainfall in
Snow Depth Not available.
UV 0 out of 12
Pollen 5.30 out of 12
Air Quality Not available.
Flu Activity Local Activity
METAR KPMP 180553Z AUTO 21003KT 10SM CLR 26/22 A2999 RMK AO2 SLP156 60000 T02560217 10267 20250 58009

More Conditions Fewer Conditions

Pressure 29.99 in
Visibility 10.0 miles
Clouds Clear
Heat Index 74 °F
Dew Point 72 °F
Humidity 90%
Rainfall in
Snow Depth Not available.
UV 0 out of 12
Pollen 5.30 out of 12
Air Quality Not available.
Flu Activity Local Activity
METAR KPMP 180553Z AUTO 21003KT 10SM CLR 26/22 A2999 RMK AO2 SLP156 60000 T02560217 10267 20250 58009

More Conditions Fewer Conditions

10-Day Weather Forecast

Almanac

Astronomy

Apr. 18, 2015 Rise Set
Actual Time
Civil Twilight
Nautical Twilight
Astronomical Twilight
Moon
Length of Visible Light
Length of Day
Tomorrow will be .
, % of the Moon is Illuminated

Today's Extremes

State Highs State Lows

Community

WunderPhotos

Upload Photos

1,814,342 photos uploaded!

WunderBlogs® & News

Nearby

Air Quality

  Air Quality AQ Index Pollutant
Not available.

Snow Depth

Station Depth Elevation

Earthquake Activity

City Distance Mag. Time & Date
Minimum magnitude displayed is 2.5.

Coastal Water Temperatures

Place Temperature

Stations

Nearby Weather Stations

Station Location Temp. Windchill Dew Point Humidity Wind Precip. Elev Updated Type